Time;durP1;ratioP1;P1;durP2;ratioP2;P2;SDS_P1;SDS_P2;PMS_P1;PMS_P2;Temp;Humidity;BMP_temperature;BMP_pressure;BME280_temperature;BME280_humidity;BME280_pressure;Samples;Min_cycle;Max_cycle;Signal;HPM_P1;HPM_P2
2021/11/11 00:00:25;;;;;;;42.53;32.38;;;9.20;75.50;;;;;;5033023;28;20076;-59
2021/11/11 00:02:55;;;;;;;40.33;30.95;;;9.20;75.50;;;;;;5051128;28;20024;-61
2021/11/11 00:05:21;;;;;;;43.38;32.78;;;9.20;75.30;;;;;;5052064;28;20021;-61
2021/11/11 00:07:47;;;;;;;42.17;31.42;;;9.20;75.30;;;;;;5033254;28;20421;-59
2021/11/11 00:10:15;;;;;;;43.58;32.40;;;9.20;75.30;;;;;;5033675;28;20029;-59
2021/11/11 00:12:41;;;;;;;41.08;31.60;;;9.20;75.40;;;;;;5050538;28;20029;-62
2021/11/11 00:15:11;;;;;;;44.15;31.75;;;9.30;75.30;;;;;;5051204;28;20025;-60
2021/11/11 00:17:38;;;;;;;42.47;32.38;;;9.30;75.00;;;;;;5051148;28;20147;-61
2021/11/11 00:20:06;;;;;;;47.63;33.08;;;9.30;75.00;;;;;;5050692;28;20578;-60
2021/11/11 00:22:32;;;;;;;45.47;33.15;;;9.10;75.20;;;;;;5051159;28;20032;-60
2021/11/11 00:24:58;;;;;;;43.15;33.58;;;9.00;75.50;;;;;;5050281;28;20029;-59
2021/11/11 00:27:23;;;;;;;43.90;33.22;;;9.00;75.90;;;;;;5050870;28;20040;-62
2021/11/11 00:29:49;;;;;;;43.47;32.83;;;8.90;76.10;;;;;;5050317;28;20090;-57
2021/11/11 00:32:15;;;;;;;42.65;32.50;;;8.90;76.20;;;;;;5051350;28;20063;-59
2021/11/11 00:34:43;;;;;;;44.47;32.70;;;8.90;76.20;;;;;;5036078;28;20131;-63
2021/11/11 00:37:09;;;;;;;49.53;34.67;;;9.00;76.10;;;;;;5054158;28;20032;-60
2021/11/11 00:39:35;;;;;;;45.08;34.10;;;8.90;76.00;;;;;;5054239;28;20028;-60
2021/11/11 00:42:01;;;;;;;45.78;34.33;;;8.90;76.10;;;;;;5035568;28;20033;-60
2021/11/11 00:44:27;;;;;;;44.72;33.78;;;8.80;76.40;;;;;;5054313;28;20028;-60
2021/11/11 00:46:53;;;;;;;51.53;35.53;;;8.80;77.10;;;;;;5054075;28;20029;-59
2021/11/11 00:49:19;;;;;;;44.42;33.92;;;8.80;76.70;;;;;;5054049;28;20056;-61
2021/11/11 00:51:45;;;;;;;47.63;35.28;;;8.80;76.60;;;;;;5053183;28;20035;-60
2021/11/11 00:54:12;;;;;;;49.03;35.78;;;8.90;76.60;;;;;;5053472;28;20053;-60
2021/11/11 00:56:39;;;;;;;48.80;36.42;;;8.80;76.70;;;;;;5036612;28;20064;-59
2021/11/11 00:59:06;;;;;;;50.58;38.15;;;8.80;77.00;;;;;;5053234;28;20043;-60
2021/11/11 01:01:33;;;;;;;51.33;38.80;;;8.70;77.10;;;;;;5053145;28;20034;-61
2021/11/11 01:04:01;;;;;;;51.63;38.08;;;8.80;77.20;;;;;;5052871;28;20107;-62
2021/11/11 01:09:12;;;;;;;47.97;35.70;;;8.80;77.30;;;;;;5053930;28;20485;-65
2021/11/11 01:11:39;;;;;;;51.60;38.17;;;8.90;77.30;;;;;;5053985;28;20033;-65
2021/11/11 01:14:05;;;;;;;52.35;38.90;;;8.90;77.20;;;;;;5053434;28;20025;-62
2021/11/11 01:16:30;;;;;;;53.08;38.92;;;8.90;77.10;;;;;;5053767;28;20027;-61
2021/11/11 01:18:56;;;;;;;54.17;40.42;;;8.90;77.20;;;;;;5053086;28;20066;-61
2021/11/11 01:21:22;;;;;;;56.28;40.30;;;8.90;77.40;;;;;;5054029;28;20028;-62
2021/11/11 01:23:47;;;;;;;54.00;39.33;;;8.90;77.80;;;;;;5053018;28;20029;-63
2021/11/11 01:26:13;;;;;;;57.05;39.58;;;8.90;77.90;;;;;;5035785;28;20036;-62
2021/11/11 01:28:39;;;;;;;53.75;39.50;;;8.80;78.00;;;;;;5035370;28;20524;-63
2021/11/11 01:31:05;;;;;;;52.28;39.53;;;8.80;78.20;;;;;;5053059;28;20024;-60
2021/11/11 01:33:31;;;;;;;55.28;40.60;;;8.80;78.40;;;;;;5051299;28;20478;-60
2021/11/11 01:35:58;;;;;;;53.50;40.60;;;8.80;78.60;;;;;;5034321;28;20231;-60
2021/11/11 01:38:23;;;;;;;55.95;39.47;;;8.80;78.50;;;;;;5052513;28;20033;-60
2021/11/11 01:40:50;;;;;;;56.20;41.05;;;8.90;78.50;;;;;;5052163;28;20078;-62
2021/11/11 01:43:16;;;;;;;56.60;41.80;;;9.00;78.30;;;;;;5053086;28;20024;-66
2021/11/11 01:45:43;;;;;;;55.58;40.47;;;9.00;78.20;;;;;;5051638;28;20033;-62
2021/11/11 01:48:15;;;;;;;55.42;40.67;;;9.00;78.00;;;;;;5052595;28;20025;-64
2021/11/11 01:50:42;;;;;;;59.15;40.80;;;9.00;78.10;;;;;;5051977;28;20036;-60
2021/11/11 01:53:10;;;;;;;53.97;39.75;;;9.00;78.20;;;;;;5048638;28;20021;-58
2021/11/11 01:55:38;;;;;;;57.97;40.00;;;9.10;78.20;;;;;;5053689;28;20045;-61
2021/11/11 01:58:04;;;;;;;52.85;38.50;;;9.10;77.90;;;;;;5052373;28;20275;-60
2021/11/11 02:00:34;;;;;;;58.00;41.20;;;9.10;77.90;;;;;;5053222;28;20523;-61
2021/11/11 02:03:03;;;;;;;56.17;40.80;;;9.10;77.90;;;;;;5034231;28;20024;-63
2021/11/11 02:05:29;;;;;;;57.13;40.72;;;9.00;78.00;;;;;;5052504;28;20029;-67
2021/11/11 02:07:55;;;;;;;53.28;39.22;;;9.00;78.00;;;;;;5051474;28;20079;-66
2021/11/11 02:10:23;;;;;;;54.13;40.45;;;8.90;78.30;;;;;;5052330;28;20029;-62
2021/11/11 02:12:50;;;;;;;55.88;41.35;;;8.90;78.40;;;;;;5051369;28;20112;-57
2021/11/11 02:15:17;;;;;;;57.60;40.47;;;8.90;78.40;;;;;;5052284;28;20390;-64
2021/11/11 02:17:43;;;;;;;57.22;40.28;;;8.90;78.60;;;;;;5052165;28;20043;-63
2021/11/11 02:20:23;;;;;;;57.55;41.22;;;9.00;78.60;;;;;;5052253;28;20513;-60
2021/11/11 02:22:50;;;;;;;56.35;42.17;;;9.00;78.60;;;;;;5051497;28;20039;-61
2021/11/11 02:25:20;;;;;;;56.47;41.28;;;9.00;78.40;;;;;;5052042;28;20056;-59
2021/11/11 02:27:47;;;;;;;54.20;39.97;;;9.10;78.30;;;;;;5051569;28;20112;-62
2021/11/11 02:30:15;;;;;;;57.05;41.00;;;9.10;78.20;;;;;;5052036;28;20087;-60
2021/11/11 02:32:41;;;;;;;57.58;42.30;;;9.10;78.40;;;;;;5034022;28;20025;-64
2021/11/11 02:35:09;;;;;;;58.30;42.60;;;9.00;78.80;;;;;;5033990;28;20059;-59
2021/11/11 02:37:38;;;;;;;58.50;41.03;;;8.80;79.30;;;;;;5034779;28;20025;-61
2021/11/11 02:40:07;;;;;;;59.15;43.30;;;8.80;79.70;;;;;;5051499;28;20021;-60
2021/11/11 02:42:34;;;;;;;55.83;40.67;;;8.80;80.00;;;;;;5034378;28;20061;-61
2021/11/11 02:45:03;;;;;;;64.68;43.45;;;8.80;80.20;;;;;;5051100;28;20033;-59
2021/11/11 02:47:29;;;;;;;59.33;42.20;;;8.70;80.40;;;;;;5052099;28;20028;-60
2021/11/11 02:49:55;;;;;;;59.50;42.67;;;8.70;80.50;;;;;;5051308;28;20021;-60
2021/11/11 02:52:21;;;;;;;56.80;41.55;;;8.80;80.50;;;;;;5051360;28;20090;-60
2021/11/11 02:54:47;;;;;;;58.30;42.88;;;8.90;80.30;;;;;;5050598;28;20459;-59
2021/11/11 02:57:28;;;;;;;63.78;42.13;;;8.80;80.30;;;;;;5050830;28;20028;-60
2021/11/11 02:59:56;;;;;;;57.92;42.15;;;8.90;80.20;;;;;;5051142;28;20032;-59
2021/11/11 03:02:27;;;;;;;64.50;46.63;;;8.90;80.20;;;;;;5051616;28;20116;-51
2021/11/11 03:04:55;;;;;;;59.65;43.47;;;8.90;80.30;;;;;;5032839;28;20029;-61
2021/11/11 03:07:21;;;;;;;58.53;43.25;;;9.00;80.20;;;;;;5051398;28;20126;-61
2021/11/11 03:09:47;;;;;;;58.10;42.90;;;9.00;80.00;;;;;;5050922;28;20027;-61
2021/11/11 03:12:14;;;;;;;62.30;44.33;;;9.00;79.60;;;;;;5032884;28;20074;-56
2021/11/11 03:14:40;;;;;;;63.50;44.38;;;9.10;79.60;;;;;;5051311;28;20091;-60
2021/11/11 03:17:06;;;;;;;61.08;44.33;;;8.90;79.90;;;;;;5050897;28;20029;-61
2021/11/11 03:19:33;;;;;;;61.55;43.55;;;8.90;80.20;;;;;;5051085;28;20033;-60
2021/11/11 03:22:02;;;;;;;60.95;44.85;;;8.90;80.10;;;;;;5050303;28;20028;-61
2021/11/11 03:24:28;;;;;;;61.95;44.10;;;8.90;80.10;;;;;;5050942;28;20069;-62
2021/11/11 03:26:54;;;;;;;62.58;42.85;;;9.00;80.10;;;;;;5050567;28;20021;-62
2021/11/11 03:29:19;;;;;;;61.20;45.63;;;8.90;80.00;;;;;;5051329;28;20422;-60
2021/11/11 03:31:45;;;;;;;60.80;43.58;;;8.90;80.20;;;;;;5050182;28;20033;-63
2021/11/11 03:34:11;;;;;;;65.63;44.00;;;9.00;80.10;;;;;;5033349;28;20025;-62
2021/11/11 03:36:37;;;;;;;64.50;43.22;;;9.00;79.90;;;;;;5051249;28;20386;-60
2021/11/11 03:39:04;;;;;;;61.85;43.20;;;9.00;79.80;;;;;;5032794;28;20527;-59
2021/11/11 03:41:29;;;;;;;59.13;42.65;;;9.00;79.90;;;;;;5033132;28;20029;-58
2021/11/11 03:43:56;;;;;;;62.80;44.45;;;9.10;79.70;;;;;;5032898;28;20025;-60
2021/11/11 03:46:22;;;;;;;57.20;42.35;;;9.10;79.50;;;;;;5051193;28;20033;-61
2021/11/11 03:48:48;;;;;;;58.90;42.63;;;9.10;79.10;;;;;;5050450;28;20036;-60
2021/11/11 03:51:14;;;;;;;64.43;43.88;;;9.10;79.20;;;;;;5051067;28;20501;-60
2021/11/11 03:53:41;;;;;;;56.17;40.75;;;9.20;79.20;;;;;;5050525;28;20025;-61
2021/11/11 03:56:07;;;;;;;60.47;42.20;;;9.20;79.00;;;;;;5050095;28;20403;-61
2021/11/11 03:58:33;;;;;;;57.97;40.65;;;9.20;78.80;;;;;;5050873;28;20031;-60
2021/11/11 04:00:58;;;;;;;59.22;42.65;;;9.30;78.70;;;;;;5050494;28;20083;-60
2021/11/11 04:03:24;;;;;;;64.00;42.17;;;9.20;78.30;;;;;;5032850;28;20029;-59
2021/11/11 04:05:50;;;;;;;61.67;43.42;;;9.10;79.50;;;;;;5049846;28;20028;-60
2021/11/11 04:08:15;;;;;;;61.08;44.58;;;9.00;79.20;;;;;;5035438;28;20024;-63
2021/11/11 04:10:41;;;;;;;66.75;44.22;;;9.00;79.50;;;;;;5037507;28;20033;-56
2021/11/11 04:13:07;;;;;;;65.10;44.42;;;8.90;79.70;;;;;;5036255;28;20029;-61
2021/11/11 04:15:33;;;;;;;67.50;45.90;;;8.90;79.90;;;;;;5054972;28;20024;-60
2021/11/11 04:17:59;;;;;;;65.57;44.13;;;9.00;80.00;;;;;;5035946;28;20063;-60
2021/11/11 04:20:26;;;;;;;64.38;44.05;;;8.90;79.80;;;;;;5055281;28;20116;-63
2021/11/11 04:22:53;;;;;;;66.93;46.33;;;8.90;80.00;;;;;;5054182;28;20029;-61
2021/11/11 04:25:59;;;;;;;64.90;44.38;;;8.90;80.10;;;;;;5037681;28;20485;-60
2021/11/11 04:28:19;;;;;;;67.75;45.22;;;8.90;80.20;;;;;;5051855;28;20072;-61
2021/11/11 04:30:48;;;;;;;70.18;45.40;;;9.00;80.00;;;;;;5037296;28;20083;-63
2021/11/11 04:33:15;;;;;;;63.83;45.58;;;9.00;79.80;;;;;;5055280;28;20029;-57
2021/11/11 04:35:44;;;;;;;61.47;43.67;;;9.00;79.80;;;;;;5037568;28;20029;-60
2021/11/11 04:38:23;;;;;;;62.10;44.05;;;9.00;79.90;;;;;;5054902;28;20025;-61
2021/11/11 04:52:14;;;;;;;63.00;45.13;;;9.10;79.90;;;;;;5025467;28;20033;-57
2021/11/11 05:04:55;;;;;;;63.42;43.63;;;9.00;79.50;;;;;;5054380;28;20067;-61
2021/11/11 05:07:21;;;;;;;67.63;46.83;;;9.00;79.70;;;;;;5054469;28;20064;-59
2021/11/11 05:09:47;;;;;;;65.07;45.28;;;9.00;79.40;;;;;;5036657;28;20021;-64
2021/11/11 05:12:14;;;;;;;67.60;45.88;;;9.10;79.30;;;;;;5053408;28;20029;-53
2021/11/11 05:14:40;;;;;;;64.75;45.55;;;9.10;79.00;;;;;;5054672;28;20021;-57
2021/11/11 05:17:06;;;;;;;73.95;47.75;;;9.10;79.00;;;;;;5036173;28;20117;-61
2021/11/11 05:19:32;;;;;;;64.80;47.55;;;9.10;78.70;;;;;;5053357;28;20064;-61
2021/11/11 05:21:58;;;;;;;69.45;46.28;;;9.10;78.70;;;;;;5035596;28;20061;-59
2021/11/11 05:24:24;;;;;;;66.00;46.25;;;9.10;78.30;;;;;;5036296;28;20025;-60
2021/11/11 05:26:50;;;;;;;71.40;46.90;;;9.10;78.20;;;;;;5053586;28;20055;-61
2021/11/11 05:29:16;;;;;;;67.45;47.80;;;9.10;78.30;;;;;;5036517;28;20029;-60
2021/11/11 05:31:43;;;;;;;70.43;47.63;;;9.00;78.40;;;;;;5036143;28;20394;-62
2021/11/11 05:34:09;;;;;;;73.57;48.20;;;9.10;78.60;;;;;;5053666;28;20268;-60
2021/11/11 05:36:34;;;;;;;74.65;49.55;;;9.00;78.50;;;;;;5035724;28;20470;-61
2021/11/11 05:39:00;;;;;;;71.55;49.25;;;9.00;78.60;;;;;;5034981;28;20036;-60
2021/11/11 05:41:26;;;;;;;69.28;46.10;;;9.00;78.80;;;;;;5054035;28;20079;-59
2021/11/11 05:43:52;;;;;;;72.50;48.92;;;9.00;78.70;;;;;;5053169;28;20392;-62
2021/11/11 05:46:18;;;;;;;72.22;48.45;;;9.00;78.60;;;;;;5053653;28;20551;-58
2021/11/11 05:49:02;;;;;;;73.97;49.08;;;9.00;78.30;;;;;;5053036;28;20033;-63
2021/11/11 05:51:27;;;;;;;;;;;8.90;78.50;;;;;;5053926;28;20037;-61
2021/11/11 05:53:53;;;;;;;75.38;48.10;;;8.90;78.80;;;;;;5052155;28;19905;-59
2021/11/11 05:56:19;;;;;;;73.18;48.10;;;8.80;78.90;;;;;;5035788;28;20100;-59
2021/11/11 05:58:45;;;;;;;78.30;50.67;;;8.80;79.00;;;;;;5035677;28;20116;-60
2021/11/11 06:01:11;;;;;;;77.07;48.92;;;8.80;79.10;;;;;;5052752;28;20332;-63
2021/11/11 06:03:37;;;;;;;73.50;47.90;;;8.80;79.20;;;;;;5053591;28;20166;-61
2021/11/11 06:06:03;;;;;;;71.90;47.65;;;8.80;79.20;;;;;;5034988;28;20044;-61
2021/11/11 06:08:29;;;;;;;73.63;46.85;;;8.80;79.10;;;;;;5053306;28;20064;-58
2021/11/11 06:10:54;;;;;;;72.03;46.20;;;8.80;79.30;;;;;;5035068;28;20433;-61
2021/11/11 06:13:22;;;;;;;76.65;48.08;;;8.70;79.10;;;;;;5035610;28;20031;-60
2021/11/11 06:15:49;;;;;;;72.47;46.97;;;8.60;79.30;;;;;;5035409;28;20025;-60
2021/11/11 06:18:15;;;;;;;74.45;47.05;;;8.60;79.50;;;;;;5052745;28;20462;-61
2021/11/11 06:20:45;;;;;;;76.97;47.30;;;8.50;79.70;;;;;;5035556;28;20478;-61
2021/11/11 06:23:12;;;;;;;75.65;45.10;;;8.60;79.70;;;;;;5052442;28;20051;-62
2021/11/11 06:25:39;;;;;;;74.22;44.72;;;8.50;79.70;;;;;;5053163;28;20350;-60
2021/11/11 06:28:08;;;;;;;70.13;43.58;;;8.50;79.90;;;;;;5034509;28;20032;-60
2021/11/11 06:30:34;;;;;;;75.93;45.08;;;8.50;80.10;;;;;;5052752;28;20039;-60
2021/11/11 06:33:00;;;;;;;75.60;44.72;;;8.60;80.00;;;;;;5034319;28;20029;-59
2021/11/11 06:35:30;;;;;;;79.82;46.50;;;8.60;79.70;;;;;;5034693;28;20026;-60
2021/11/11 06:37:57;;;;;;;80.45;46.13;;;8.60;79.70;;;;;;5052134;28;20029;-57
2021/11/11 06:40:23;;;;;;;75.53;45.53;;;8.70;79.50;;;;;;5052621;28;20021;-61
2021/11/11 06:42:49;;;;;;;76.40;47.15;;;8.70;79.50;;;;;;5052495;28;20071;-62
2021/11/11 06:45:16;;;;;;;77.28;44.65;;;8.70;79.50;;;;;;5052382;28;20036;-60
2021/11/11 06:47:42;;;;;;;75.55;44.80;;;8.70;79.80;;;;;;5034997;28;20379;-57
2021/11/11 06:50:09;;;;;;;78.38;46.78;;;8.80;79.40;;;;;;5051491;28;20028;-61
2021/11/11 06:52:36;;;;;;;77.15;48.25;;;8.70;79.20;;;;;;5052290;28;20094;-62
2021/11/11 06:55:04;;;;;;;78.05;46.97;;;8.70;79.20;;;;;;5050965;28;20044;-61
2021/11/11 06:57:30;;;;;;;74.97;45.22;;;8.80;79.30;;;;;;5052219;28;20047;-63
2021/11/11 06:59:57;;;;;;;80.00;46.72;;;8.80;79.10;;;;;;5033329;28;20116;-61
2021/11/11 07:02:26;;;;;;;81.75;46.15;;;8.80;79.10;;;;;;5051282;28;20033;-64
2021/11/11 07:04:52;;;;;;;75.45;45.28;;;8.90;79.00;;;;;;5051644;28;20029;-61
2021/11/11 07:07:18;;;;;;;82.03;43.40;;;9.00;78.80;;;;;;5051315;28;20044;-60
2021/11/11 07:09:45;;;;;;;72.57;47.03;;;9.00;78.40;;;;;;5051573;28;20028;-61
2021/11/11 07:12:11;;;;;;;74.38;42.92;;;9.10;78.30;;;;;;5033452;28;20284;-60
2021/11/11 07:14:41;;;;;;;73.43;44.58;;;9.20;78.20;;;;;;5050513;28;20153;-60
2021/11/11 07:17:08;;;;;;;68.57;44.50;;;9.20;77.60;;;;;;5033131;28;20025;-65
2021/11/11 07:19:34;;;;;;;70.07;44.88;;;9.20;77.40;;;;;;5033416;28;20182;-61
2021/11/11 07:22:04;;;;;;;73.00;46.70;;;9.20;77.20;;;;;;5050611;28;20514;-62
2021/11/11 07:24:33;;;;;;;75.63;45.50;;;9.10;77.30;;;;;;5051529;28;20106;-58
2021/11/11 07:26:59;;;;;;;79.60;46.88;;;9.00;77.50;;;;;;5051279;28;20167;-63
2021/11/11 07:29:30;;;;;;;73.88;47.40;;;8.90;78.10;;;;;;5033922;28;20029;-62
2021/11/11 07:31:57;;;;;;;74.82;47.22;;;8.80;78.50;;;;;;5032330;28;20036;-59
2021/11/11 07:34:26;;;;;;;71.93;46.40;;;8.70;79.00;;;;;;5052116;28;20469;-59
2021/11/11 07:36:54;;;;;;;71.43;46.30;;;8.70;79.50;;;;;;5051467;28;20090;-61
2021/11/11 07:39:22;;;;;;;72.70;47.22;;;8.70;79.70;;;;;;5050133;28;20017;-63
2021/11/11 07:41:48;;;;;;;76.97;48.25;;;8.70;79.50;;;;;;5050632;28;20079;-59
2021/11/11 07:44:14;;;;;;;80.18;49.35;;;8.70;79.70;;;;;;5052305;28;20041;-55
2021/11/11 07:46:41;;;;;;;77.63;48.83;;;8.70;79.80;;;;;;5050146;28;20032;-57
2021/11/11 07:49:08;;;;;;;78.07;49.42;;;8.80;79.60;;;;;;5050441;28;20079;-62
2021/11/11 07:51:34;;;;;;;81.95;51.55;;;8.80;79.60;;;;;;5050480;28;20621;-62
2021/11/11 07:54:02;;;;;;;80.68;48.58;;;8.80;79.40;;;;;;5032411;28;20025;-58
2021/11/11 07:56:30;;;;;;;77.10;47.70;;;9.00;79.40;;;;;;5051161;28;20025;-58
2021/11/11 07:58:56;;;;;;;76.50;48.70;;;9.00;79.00;;;;;;5032764;28;20025;-64
2021/11/11 08:01:22;;;;;;;73.47;46.67;;;9.00;78.80;;;;;;5051130;28;20048;-54
2021/11/11 08:03:48;;;;;;;76.80;48.35;;;9.00;78.90;;;;;;5032035;28;20025;-62
2021/11/11 08:06:14;;;;;;;76.93;46.45;;;8.90;79.60;;;;;;5032094;28;20025;-64
2021/11/11 08:08:40;;;;;;;86.15;47.20;;;8.90;79.40;;;;;;5050934;28;20104;-61
2021/11/11 08:11:06;;;;;;;80.65;48.88;;;8.90;79.60;;;;;;5032635;28;20121;-65
2021/11/11 08:13:32;;;;;;;85.65;47.47;;;9.00;79.10;;;;;;5051389;28;20035;-60
2021/11/11 08:15:59;;;;;;;82.55;45.88;;;9.00;79.00;;;;;;5051267;28;20021;-62
2021/11/11 08:18:25;;;;;;;82.05;48.55;;;9.00;78.80;;;;;;5050986;28;20061;-61
2021/11/11 08:20:53;;;;;;;83.25;48.72;;;9.00;78.80;;;;;;5050706;28;20071;-58
2021/11/11 08:23:20;;;;;;;80.22;48.15;;;8.90;79.00;;;;;;5033126;28;20116;-56
2021/11/11 08:25:48;;;;;;;88.57;48.15;;;8.80;79.10;;;;;;5033128;28;20021;-62
2021/11/11 08:28:21;;;;;;;83.15;47.55;;;8.70;79.60;;;;;;5050816;28;20032;-56
2021/11/11 08:30:48;;;;;;;85.95;48.65;;;8.70;80.20;;;;;;5051058;28;20052;-57
2021/11/11 08:33:15;;;;;;;83.88;48.22;;;8.60;80.40;;;;;;5050210;28;20377;-56
2021/11/11 08:35:43;;;;;;;83.70;46.38;;;8.60;80.80;;;;;;5050834;28;20033;-56
2021/11/11 08:38:09;;;;;;;81.55;46.35;;;8.70;80.60;;;;;;5050109;28;20029;-58
2021/11/11 08:40:35;;;;;;;83.70;47.45;;;8.70;80.20;;;;;;5051032;28;20049;-59
2021/11/11 08:43:01;;;;;;;80.15;46.38;;;8.70;80.10;;;;;;5033269;28;20053;-60
2021/11/11 08:45:29;;;;;;;81.82;47.08;;;8.70;80.10;;;;;;5033192;28;20025;-60
2021/11/11 08:47:55;;;;;;;79.35;45.50;;;8.70;80.10;;;;;;5016339;28;20124;-62
2021/11/11 08:50:24;;;;;;;80.88;47.17;;;8.70;80.40;;;;;;5049668;28;20029;-62
2021/11/11 08:52:54;;;;;;;75.00;45.00;;;8.70;80.10;;;;;;5050823;28;20127;-59
2021/11/11 08:55:22;;;;;;;77.15;45.58;;;8.80;79.90;;;;;;5058040;28;20507;-56
2021/11/11 08:57:48;;;;;;;77.75;45.55;;;8.80;79.70;;;;;;5073428;28;20028;-62
2021/11/11 09:00:18;;;;;;;77.90;46.30;;;8.90;80.00;;;;;;5072643;28;20031;-54
2021/11/11 09:03:03;;;;;;;80.53;47.42;;;8.90;79.10;;;;;;5073163;28;20033;-59
2021/11/11 09:05:32;;;;;;;68.90;41.83;;;8.90;79.10;;;;;;5074205;28;20017;-61
2021/11/11 09:07:58;;;;;;;64.78;41.47;;;8.90;78.70;;;;;;5072886;28;20024;-56
2021/11/11 09:10:24;;;;;;;70.35;42.20;;;8.70;79.00;;;;;;5074219;28;20021;-59
2021/11/11 09:12:52;;;;;;;69.25;41.55;;;8.70;79.10;;;;;;5074132;28;20032;-61
2021/11/11 09:15:22;;;;;;;72.53;42.55;;;8.70;79.40;;;;;;5072784;28;20044;-55
2021/11/11 09:17:50;;;;;;;73.38;44.20;;;8.70;79.50;;;;;;5074474;28;20107;-60
2021/11/11 09:20:17;;;;;;;78.03;47.65;;;8.70;79.40;;;;;;5073712;28;20029;-62
2021/11/11 09:22:43;;;;;;;73.10;43.30;;;8.70;79.40;;;;;;5073717;28;20029;-62
2021/11/11 09:25:09;;;;;;;66.03;41.50;;;8.70;79.60;;;;;;5072506;28;20028;-59
2021/11/11 09:27:37;;;;;;;82.72;42.65;;;8.70;79.20;;;;;;5073993;28;20052;-63
2021/11/11 09:30:07;;;;;;;73.40;41.47;;;8.70;78.90;;;;;;5055425;28;20028;-60
2021/11/11 09:32:34;;;;;;;67.75;40.92;;;8.70;78.70;;;;;;5073699;28;20119;-60
2021/11/11 09:35:04;;;;;;;64.75;40.38;;;8.70;78.60;;;;;;5072154;28;20024;-61
2021/11/11 09:37:33;;;;;;;83.30;47.28;;;8.70;78.70;;;;;;5073760;28;20036;-60
2021/11/11 09:39:59;;;;;;;81.50;46.00;;;8.70;78.90;;;;;;5073561;28;20068;-61
2021/11/11 09:42:26;;;;;;;73.68;42.25;;;8.80;78.90;;;;;;5073551;28;20071;-62
2021/11/11 09:44:52;;;;;;;74.20;43.83;;;8.80;78.90;;;;;;5072872;28;20047;-57
2021/11/11 09:47:18;;;;;;;79.57;44.67;;;8.80;78.80;;;;;;5073427;28;20450;-60
2021/11/11 09:49:46;;;;;;;85.97;48.67;;;8.80;79.00;;;;;;5072085;28;20033;-60
2021/11/11 09:52:12;;;;;;;88.43;48.92;;;8.90;79.00;;;;;;5073065;28;20036;-60
2021/11/11 09:59:50;;;;;;;103.40;53.92;;;8.90;79.00;;;;;;5072329;28;20070;-61
2021/11/11 10:02:16;;;;;;;130.00;71.90;;;9.00;79.00;;;;;;5072485;28;20032;-61
2021/11/11 10:04:42;;;;;;;148.07;80.05;;;9.00;79.10;;;;;;5071746;28;20058;-60
2021/11/11 10:07:26;;;;;;;117.38;64.10;;;9.00;78.90;;;;;;5070547;28;20029;-59
2021/11/11 10:09:52;;;;;;;87.13;49.85;;;9.10;78.90;;;;;;5072363;28;20032;-64
2021/11/11 10:12:21;;;;;;;140.98;78.78;;;9.10;78.70;;;;;;5072073;28;20071;-60
2021/11/11 10:14:48;;;;;;;82.03;48.38;;;9.10;78.80;;;;;;5072354;28;20024;-61
2021/11/11 10:17:17;;;;;;;86.00;47.33;;;9.10;78.60;;;;;;5072675;28;20116;-62
2021/11/11 10:19:46;;;;;;;77.28;43.85;;;9.10;78.60;;;;;;5073140;28;20052;-58
2021/11/11 10:22:19;;;;;;;92.32;50.00;;;9.00;78.80;;;;;;5072526;28;20033;-54
2021/11/11 10:30:25;;;;;;;75.22;42.83;;;9.10;79.20;;;;;;5073062;28;20102;-61
2021/11/11 10:32:53;;;;;;;84.03;46.42;;;9.00;79.30;;;;;;5073657;28;20055;-62
2021/11/11 10:35:22;;;;;;;94.72;53.97;;;9.00;79.50;;;;;;5073090;28;20063;-61
2021/11/11 10:38:06;;;;;;;92.80;52.13;;;9.00;79.90;;;;;;5073161;28;20050;-61
2021/11/11 10:40:41;;;;;;;130.30;67.45;;;9.00;79.90;;;;;;5073369;28;20028;-59
2021/11/11 10:43:10;;;;;;;74.03;43.33;;;9.00;79.70;;;;;;5072818;28;20039;-60
2021/11/11 10:45:40;;;;;;;89.38;46.92;;;9.10;79.60;;;;;;5071854;28;20020;-60
2021/11/11 10:48:08;;;;;;;127.47;55.78;;;9.10;79.50;;;;;;5072383;28;20048;-57
2021/11/11 10:50:38;;;;;;;70.72;40.42;;;9.00;79.40;;;;;;5071463;28;20021;-54
2021/11/11 10:53:07;;;;;;;71.57;38.90;;;9.00;80.30;;;;;;5054326;28;20115;-63
2021/11/11 10:55:42;;;;;;;62.90;38.45;;;9.00;79.70;;;;;;5058497;28;20497;-61
2021/11/11 10:58:15;;;;;;;67.93;40.03;;;9.10;79.40;;;;;;5034237;28;20025;-62
2021/11/11 11:00:53;;;;;;;62.47;38.65;;;9.20;79.20;;;;;;5052515;28;20057;-60
2021/11/11 11:03:36;;;;;;;61.25;37.85;;;9.20;79.00;;;;;;5051967;28;20116;-59
2021/11/11 11:06:13;;;;;;;91.47;49.72;;;9.10;78.60;;;;;;5034244;28;20036;-59
2021/11/11 11:08:43;;;;;;;76.55;44.15;;;9.20;78.80;;;;;;5052350;28;20090;-60
2021/11/11 11:11:21;;;;;;;71.25;40.83;;;9.20;78.80;;;;;;5052251;28;20397;-61
2021/11/11 11:13:52;;;;;;;84.47;45.10;;;9.20;78.90;;;;;;5034977;28;20455;-62
2021/11/11 11:16:20;;;;;;;73.88;41.33;;;9.10;79.10;;;;;;5051807;28;20025;-62
2021/11/11 11:18:55;;;;;;;65.07;38.53;;;9.10;79.30;;;;;;5034273;28;20078;-57
2021/11/11 11:21:26;;;;;;;66.15;38.38;;;9.10;79.30;;;;;;5034262;28;20698;-61
2021/11/11 11:23:58;;;;;;;63.28;37.72;;;9.10;79.40;;;;;;5052217;28;20025;-60
2021/11/11 11:26:25;;;;;;;68.00;40.92;;;9.10;79.30;;;;;;5034225;28;20112;-62
2021/11/11 11:31:52;;;;;;;68.40;39.67;;;9.10;79.70;;;;;;5052216;28;20425;-60
2021/11/11 11:34:20;;;;;;;75.72;42.35;;;9.20;79.50;;;;;;5051826;28;20036;-56
2021/11/11 11:36:52;;;;;;;70.80;39.67;;;9.20;80.10;;;;;;5051904;28;20021;-63
2021/11/11 11:39:30;;;;;;;73.50;41.60;;;9.20;79.40;;;;;;5051743;28;20021;-59
2021/11/11 11:42:00;;;;;;;70.53;39.67;;;9.10;79.60;;;;;;5052048;28;20033;-61
2021/11/11 11:44:34;;;;;;;71.22;40.20;;;9.10;79.80;;;;;;5033750;28;20064;-58
2021/11/11 11:47:28;;;;;;;63.38;37.70;;;9.10;79.90;;;;;;5034162;28;20032;-61
2021/11/11 11:50:17;;;;;;;68.65;39.05;;;9.20;79.50;;;;;;5032853;28;20161;-60
2021/11/11 11:52:48;;;;;;;65.93;38.50;;;9.20;79.70;;;;;;5033731;28;20127;-60
2021/11/11 12:05:45;;;;;;;64.18;38.35;;;9.20;79.20;;;;;;5071385;28;20059;-64
2021/11/11 12:13:55;;;;;;;61.03;36.28;;;9.20;78.70;;;;;;5071367;28;20036;-64
2021/11/11 12:39:40;;;;;;;64.70;39.58;;;9.40;79.30;;;;;;5075013;28;20134;-63
2021/11/11 12:42:16;;;;;;;71.80;39.10;;;9.40;78.90;;;;;;5073393;28;20044;-63
2021/11/11 12:45:08;;;;;;;76.90;41.63;;;9.30;78.90;;;;;;5073813;28;20115;-61
2021/11/11 12:47:37;;;;;;;68.80;40.42;;;9.40;79.10;;;;;;5035540;28;20036;-68
2021/11/11 12:50:29;;;;;;;72.10;41.67;;;9.40;79.00;;;;;;5075023;28;20029;-66
2021/11/11 12:53:22;;;;;;;77.28;42.75;;;9.50;78.80;;;;;;5073743;28;20086;-63
2021/11/11 12:56:35;;;;;;;74.55;40.83;;;9.50;78.70;;;;;;5044336;28;20059;-65
2021/11/11 12:59:02;;;;;;;75.90;43.30;;;9.60;78.60;;;;;;5072572;28;20050;-68
2021/11/11 13:01:33;;;;;;;74.57;42.00;;;9.50;78.80;;;;;;5072675;28;20090;-66
2021/11/11 13:04:03;;;;;;;74.68;43.55;;;9.40;79.10;;;;;;5057178;28;20029;-65
2021/11/11 13:06:35;;;;;;;76.20;42.25;;;9.30;79.60;;;;;;5074667;28;20024;-65
2021/11/11 13:09:19;;;;;;;78.15;42.83;;;9.30;79.90;;;;;;5073218;28;20021;-65
2021/11/11 13:11:49;;;;;;;80.00;43.53;;;9.20;80.00;;;;;;5073219;28;20093;-62
2021/11/11 13:14:27;;;;;;;79.90;43.58;;;9.20;80.00;;;;;;5073431;28;20450;-65
2021/11/11 13:16:56;;;;;;;75.50;43.72;;;9.30;80.30;;;;;;5074622;28;20017;-66
2021/11/11 13:19:44;;;;;;;82.20;46.08;;;9.40;80.30;;;;;;5073665;28;20029;-67
2021/11/11 13:28:32;;;;;;;87.50;44.63;;;9.50;79.90;;;;;;5069577;28;20043;-67
2021/11/11 15:04:22;;;;;;;87.45;48.70;;;9.20;81.40;;;;;;5053129;28;20090;-60
2021/11/11 16:26:26;;;;;;;86.55;47.25;;;9.20;80.30;;;;;;5048378;28;20029;-66
2021/11/11 16:28:57;;;;;;;87.38;47.60;;;9.20;80.30;;;;;;5031867;28;20033;-61
2021/11/11 16:31:24;;;;;;;88.53;47.40;;;9.20;80.30;;;;;;5049328;28;20029;-71
2021/11/11 16:33:51;;;;;;;86.18;47.83;;;9.30;80.30;;;;;;5049906;28;20466;-64
2021/11/11 16:36:18;;;;;;;82.00;45.35;;;9.30;80.20;;;;;;5049161;28;20100;-66
2021/11/11 16:38:46;;;;;;;88.40;47.58;;;9.30;80.00;;;;;;5030766;28;20389;-65
2021/11/11 16:41:12;;;;;;;75.50;44.72;;;9.40;79.80;;;;;;5031159;28;20033;-69
2021/11/11 16:43:39;;;;;;;89.80;48.88;;;9.30;79.70;;;;;;5048968;28;20112;-66
2021/11/11 16:46:05;;;;;;;87.78;47.08;;;9.30;79.60;;;;;;5048523;28;20021;-61
2021/11/11 16:48:34;;;;;;;84.43;45.72;;;9.40;79.80;;;;;;5049058;28;20036;-65
2021/11/11 16:51:02;;;;;;;81.72;46.25;;;9.40;79.60;;;;;;5048557;28;20077;-65
2021/11/11 16:53:28;;;;;;;80.47;45.20;;;9.40;79.40;;;;;;5048454;28;20112;-73
2021/11/11 16:55:54;;;;;;;84.35;45.78;;;9.40;79.40;;;;;;5049206;28;20452;-63
2021/11/11 16:58:21;;;;;;;87.15;48.03;;;9.40;79.20;;;;;;5047690;28;20029;-64
2021/11/11 17:00:47;;;;;;;94.60;49.50;;;9.40;79.20;;;;;;5030015;28;20323;-64